Time;durP1;ratioP1;P1;durP2;ratioP2;P2;SDS_P1;SDS_P2;PMS_P1;PMS_P2;Temp;Humidity;BMP_temperature;BMP_pressure;BME280_temperature;BME280_humidity;BME280_pressure;Samples;Min_cycle;Max_cycle;Signal;HPM_P1;HPM_P2
2020/12/14 00:03:03;;;;;;;15.02;8.73;;;;;;;2.31;88.50;100567.22;5053016;28;20056;-79
2020/12/14 00:06:08;;;;;;;9.93;8.13;;;;;;;2.34;88.48;100572.38;5067029;28;20056;-78
2020/12/14 00:09:12;;;;;;;15.35;9.02;;;;;;;2.29;88.57;100563.78;5069891;28;20056;-78
2020/12/14 00:12:17;;;;;;;12.05;8.60;;;;;;;2.30;88.88;100570.78;5072582;28;20055;-78
2020/12/14 00:15:21;;;;;;;11.48;8.00;;;;;;;2.31;88.62;100565.44;5040869;28;20499;-77
2020/12/14 00:18:25;;;;;;;11.93;7.93;;;;;;;2.27;88.81;100579.75;5053336;28;20380;-77
2020/12/14 00:21:30;;;;;;;12.68;9.25;;;;;;;2.22;89.04;100584.41;5056830;28;20514;-78
2020/12/14 00:24:34;;;;;;;12.00;9.05;;;;;;;2.23;89.10;100580.84;5073081;28;20043;-78
2020/12/14 00:27:39;;;;;;;11.48;8.55;;;;;;;2.23;89.12;100577.31;5052079;28;20053;-78
2020/12/14 00:30:43;;;;;;;11.00;8.25;;;;;;;2.17;89.19;100569.72;5043736;28;20103;-77
2020/12/14 00:33:47;;;;;;;15.43;8.93;;;;;;;2.16;89.48;100575.94;5073306;28;20051;-78
2020/12/14 00:36:52;;;;;;;13.30;9.20;;;;;;;2.14;89.44;100562.78;5052962;28;20044;-77
2020/12/14 00:39:56;;;;;;;12.30;8.88;;;;;;;2.17;89.57;100565.28;5040812;28;20059;-78
2020/12/14 00:43:01;;;;;;;12.00;8.35;;;;;;;2.23;89.82;100572.91;5061169;28;20420;-78
2020/12/14 00:46:07;;;;;;;12.18;7.53;;;;;;;2.31;89.95;100583.09;5064408;28;20111;-78
2020/12/14 00:49:11;;;;;;;9.98;8.00;;;;;;;2.34;89.53;100591.78;5062413;28;20052;-79
2020/12/14 00:52:15;;;;;;;11.13;8.02;;;;;;;2.26;89.46;100593.06;5056623;28;20044;-78
2020/12/14 00:55:20;;;;;;;8.52;6.32;;;;;;;2.27;89.36;100586.84;5044264;28;20044;-78
2020/12/14 00:58:24;;;;;;;9.25;6.38;;;;;;;2.29;89.22;100598.22;5055732;28;20056;-77
2020/12/14 01:01:28;;;;;;;7.55;5.82;;;;;;;2.25;89.16;100601.94;5056925;28;20048;-79
2020/12/14 01:04:32;;;;;;;7.90;5.72;;;;;;;2.25;89.20;100605.44;5056254;28;20056;-78
2020/12/14 01:07:36;;;;;;;7.25;5.15;;;;;;;2.29;88.99;100608.81;5056054;28;20059;-79
2020/12/14 01:10:41;;;;;;;8.20;5.97;;;;;;;2.25;89.35;100605.44;5043882;28;20052;-78
2020/12/14 01:13:45;;;;;;;8.68;6.15;;;;;;;2.26;89.02;100615.13;5056161;28;20107;-78
2020/12/14 01:16:49;;;;;;;9.93;6.80;;;;;;;2.34;89.19;100615.59;5055849;28;20044;-79
2020/12/14 01:19:54;;;;;;;11.27;6.05;;;;;;;2.31;88.96;100620.19;5055722;28;20048;-78
2020/12/14 01:22:58;;;;;;;7.88;5.80;;;;;;;2.32;89.27;100621.91;5056258;28;20072;-78
2020/12/14 01:26:03;;;;;;;6.45;5.13;;;;;;;2.31;88.79;100629.00;5056182;28;20059;-78
2020/12/14 01:29:08;;;;;;;6.60;4.72;;;;;;;2.26;88.71;100633.66;5043534;28;20052;-78
2020/12/14 01:32:12;;;;;;;7.35;5.03;;;;;;;2.27;88.58;100638.00;5043029;28;20052;-78
2020/12/14 01:35:16;;;;;;;8.60;5.68;;;;;;;2.25;89.00;100644.31;5056017;28;20133;-78
2020/12/14 01:38:21;;;;;;;7.80;5.18;;;;;;;2.26;88.92;100646.91;5043475;28;20056;-77
2020/12/14 01:41:25;;;;;;;7.82;5.53;;;;;;;2.24;89.04;100647.91;5055940;28;20055;-78
2020/12/14 01:44:29;;;;;;;7.97;5.43;;;;;;;2.26;89.08;100648.69;5055580;28;20051;-77
2020/12/14 01:47:38;;;;;;;7.95;5.18;;;;;;;2.32;88.83;100659.00;5055676;28;20055;-78
2020/12/14 01:50:42;;;;;;;7.20;5.55;;;;;;;2.25;88.81;100642.53;5055621;28;20052;-79
2020/12/14 01:53:49;;;;;;;8.38;6.30;;;;;;;2.26;88.79;100638.94;5054443;28;20060;-79
2020/12/14 01:56:55;;;;;;;7.65;5.53;;;;;;;2.29;88.77;100630.88;5055345;28;20063;-79
2020/12/14 02:00:00;;;;;;;8.15;5.63;;;;;;;2.28;88.77;100629.13;5055245;28;20052;-78
2020/12/14 02:03:04;;;;;;;7.22;5.63;;;;;;;2.26;88.49;100623.06;5055004;28;20047;-78
2020/12/14 02:06:09;;;;;;;7.78;5.22;;;;;;;2.21;88.22;100625.09;5055139;28;20068;-78
2020/12/14 02:09:13;;;;;;;9.35;5.93;;;;;;;2.13;88.26;100619.28;5055031;28;20044;-78
2020/12/14 02:12:17;;;;;;;9.98;5.97;;;;;;;2.08;88.10;100629.25;5054966;28;20384;-78
2020/12/14 02:15:21;;;;;;;12.45;6.82;;;;;;;2.01;88.37;100619.91;5043056;28;20052;-79
2020/12/14 02:18:25;;;;;;;;;;;;;;;1.92;88.09;100623.00;5062633;28;20059;-78
2020/12/14 02:21:29;;;;;;;10.70;6.32;;;;;;;1.84;88.45;100626.00;5074640;28;19916;-79
2020/12/14 02:24:33;;;;;;;12.23;6.60;;;;;;;1.84;88.51;100627.78;5074755;28;20048;-78
2020/12/14 02:27:37;;;;;;;10.90;6.10;;;;;;;1.81;88.59;100625.28;5074558;28;20486;-79
2020/12/14 02:30:42;;;;;;;8.77;5.85;;;;;;;1.81;88.76;100620.84;5074858;28;20055;-78
2020/12/14 02:36:13;;;;;;;8.57;5.07;;;;;;;1.70;89.14;100612.59;5073964;28;20379;-79
2020/12/14 02:39:18;;;;;;;8.48;5.38;;;;;;;1.76;89.32;100614.94;5074230;28;20115;-78
2020/12/14 02:42:24;;;;;;;9.25;5.93;;;;;;;1.78;88.91;100620.13;5074414;28;20051;-78
2020/12/14 02:45:29;;;;;;;7.72;5.10;;;;;;;1.79;89.00;100613.91;5062082;28;20502;-79
2020/12/14 02:48:33;;;;;;;7.40;5.20;;;;;;;1.76;89.02;100622.88;5074367;28;20051;-79
2020/12/14 02:51:37;;;;;;;6.82;4.72;;;;;;;1.77;88.86;100616.66;5074320;28;20055;-77
2020/12/14 02:54:43;;;;;;;7.80;5.45;;;;;;;1.71;88.82;100619.56;5074177;28;20491;-78
2020/12/14 02:57:48;;;;;;;7.97;5.25;;;;;;;1.56;89.39;100620.28;5073870;28;20051;-78
2020/12/14 03:00:52;;;;;;;7.25;5.18;;;;;;;1.60;89.54;100616.59;5073937;28;20051;-78
2020/12/14 03:03:56;;;;;;;7.43;5.63;;;;;;;1.66;89.49;100610.13;5074072;28;20052;-78
2020/12/14 03:07:01;;;;;;;7.38;5.30;;;;;;;1.68;89.58;100603.84;5074118;28;20055;-79
2020/12/14 03:10:05;;;;;;;8.45;4.82;;;;;;;1.73;89.45;100617.72;5074299;28;20514;-78
2020/12/14 03:13:09;;;;;;;7.10;4.90;;;;;;;1.67;89.33;100618.03;5073931;28;20482;-78
2020/12/14 03:16:14;;;;;;;8.90;5.40;;;;;;;1.73;89.41;100624.78;5074065;28;20048;-79
2020/12/14 03:19:19;;;;;;;8.93;5.50;;;;;;;1.76;89.19;100637.88;5073813;28;20474;-78
2020/12/14 03:22:23;;;;;;;7.43;5.95;;;;;;;1.73;89.16;100646.81;5074068;28;20044;-77
2020/12/14 03:25:27;;;;;;;7.47;5.28;;;;;;;1.72;89.03;100642.47;5073761;28;20502;-78
2020/12/14 03:28:31;;;;;;;8.45;5.70;;;;;;;1.67;88.89;100654.19;5073582;28;20067;-79
2020/12/14 03:31:37;;;;;;;8.15;6.10;;;;;;;1.66;88.98;100645.41;5073724;28;20371;-77
2020/12/14 03:34:41;;;;;;;9.82;6.93;;;;;;;1.57;89.11;100663.47;5050224;28;20048;-79
2020/12/14 03:37:45;;;;;;;10.68;6.32;;;;;;;1.47;89.25;100672.75;5061089;28;20043;-78
2020/12/14 03:40:49;;;;;;;8.07;6.13;;;;;;;1.47;89.21;100668.34;5073643;28;20040;-78
2020/12/14 03:43:54;;;;;;;9.82;5.55;;;;;;;1.44;88.86;100681.69;5073569;28;20478;-78
2020/12/14 03:46:59;;;;;;;8.32;6.43;;;;;;;1.40;89.03;100690.72;5061254;28;20418;-78
2020/12/14 03:50:03;;;;;;;9.40;7.22;;;;;;;1.40;89.48;100693.34;5049361;28;20056;-78
2020/12/14 03:53:07;;;;;;;13.95;9.02;;;;;;;1.35;89.01;100694.47;5061469;28;20055;-79
2020/12/14 03:56:21;;;;;;;16.30;11.20;;;;;;;1.23;88.98;100701.19;5073772;28;20055;-79
2020/12/14 03:59:26;;;;;;;15.80;10.70;;;;;;;1.17;89.35;100698.78;5060913;28;20526;-79
2020/12/14 04:02:30;;;;;;;16.88;14.13;;;;;;;1.03;89.58;100699.41;5060880;28;20396;-77
2020/12/14 04:05:35;;;;;;;20.10;14.93;;;;;;;1.00;89.86;100698.66;5073281;28;20056;-77
2020/12/14 04:08:39;;;;;;;19.27;13.95;;;;;;;0.98;90.15;100692.59;5049263;28;20115;-77
2020/12/14 04:11:43;;;;;;;20.35;14.93;;;;;;;0.98;90.93;100696.09;5073525;28;20048;-76
2020/12/14 04:14:48;;;;;;;18.80;14.88;;;;;;;0.97;90.80;100690.84;5073283;28;20119;-77
2020/12/14 04:17:52;;;;;;;19.27;14.23;;;;;;;0.98;91.08;100690.81;5063008;28;20063;-77
2020/12/14 04:20:56;;;;;;;16.38;11.63;;;;;;;0.95;91.06;100690.94;5052830;28;20056;-76
2020/12/14 04:24:02;;;;;;;14.88;11.23;;;;;;;0.97;90.96;100691.72;5077121;28;20052;-79
2020/12/14 04:27:06;;;;;;;13.43;9.73;;;;;;;0.92;91.19;100687.56;5077154;28;20043;-79
2020/12/14 04:30:11;;;;;;;12.38;9.15;;;;;;;0.95;91.41;100688.28;5064345;28;20498;-79
2020/12/14 04:33:16;;;;;;;13.32;9.60;;;;;;;0.98;91.47;100692.59;5077027;28;20422;-78
2020/12/14 04:36:20;;;;;;;9.48;7.65;;;;;;;0.98;91.14;100693.47;5076863;28;20064;-79
2020/12/14 04:39:25;;;;;;;10.10;7.90;;;;;;;0.98;91.15;100703.16;5064570;28;20067;-78
2020/12/14 04:42:30;;;;;;;10.40;8.18;;;;;;;0.98;91.30;100711.97;5077155;28;20055;-79
2020/12/14 04:45:36;;;;;;;14.55;7.70;;;;;;;1.03;91.19;100717.91;5076720;28;20059;-77
2020/12/14 04:48:42;;;;;;;8.93;6.70;;;;;;;1.01;90.86;100726.81;5076831;28;20379;-78
2020/12/14 04:51:46;;;;;;;15.27;7.72;;;;;;;0.94;91.04;100720.09;5076428;28;20486;-78
2020/12/14 04:54:53;;;;;;;12.32;6.20;;;;;;;0.83;90.25;100733.75;5076784;28;20051;-78
2020/12/14 04:57:57;;;;;;;8.30;6.57;;;;;;;0.87;90.53;100735.31;5055077;28;20059;-78
2020/12/14 05:01:03;;;;;;;7.25;6.00;;;;;;;0.82;90.38;100736.44;5056643;28;20051;-79
2020/12/14 05:04:07;;;;;;;8.40;6.15;;;;;;;0.91;90.74;100741.34;5055762;28;20048;-79
2020/12/14 05:07:12;;;;;;;;;;;;;;;0.84;90.72;100740.72;5056530;28;20044;-78
2020/12/14 05:10:22;;;;;;;8.13;5.85;;;;;;;0.86;90.75;100736.25;5055342;28;19916;-79
2020/12/14 05:13:28;;;;;;;8.95;5.72;;;;;;;0.87;91.09;100747.66;5055452;28;20060;-79
2020/12/14 05:16:35;;;;;;;8.38;6.45;;;;;;;0.87;91.07;100750.31;5056209;28;20392;-79
2020/12/14 05:19:39;;;;;;;8.07;5.78;;;;;;;0.92;90.84;100746.56;5056023;28;20048;-79
2020/12/14 05:23:00;;;;;;;11.20;7.03;;;;;;;0.91;90.84;100749.28;5055952;28;20044;-79
2020/12/14 05:26:06;;;;;;;8.63;5.70;;;;;;;0.95;91.38;100745.56;5056176;28;20130;-79
2020/12/14 05:29:37;;;;;;;9.48;6.03;;;;;;;1.00;91.76;100743.59;5055850;28;20478;-79
2020/12/14 05:32:41;;;;;;;7.43;5.68;;;;;;;1.05;91.78;100749.53;5056009;28;20056;-77
2020/12/14 05:35:47;;;;;;;7.10;4.88;;;;;;;1.04;91.96;100753.09;5055881;28;20048;-79
2020/12/14 05:38:51;;;;;;;8.52;4.97;;;;;;;1.03;91.58;100761.97;5043340;28;20056;-79
2020/12/14 05:42:07;;;;;;;6.90;4.85;;;;;;;0.99;91.90;100761.22;5055617;28;20048;-78
2020/12/14 05:45:12;;;;;;;6.97;5.10;;;;;;;1.03;91.88;100761.97;5055355;28;20072;-78
2020/12/14 05:48:28;;;;;;;6.82;4.57;;;;;;;1.05;91.86;100766.25;5054949;28;20475;-79
2020/12/14 05:51:34;;;;;;;6.80;4.97;;;;;;;1.05;91.87;100763.63;5055512;28;20052;-78
2020/12/14 05:54:47;;;;;;;7.53;5.40;;;;;;;1.04;92.07;100769.81;5055434;28;20514;-78
2020/12/14 05:57:51;;;;;;;8.75;4.85;;;;;;;1.03;91.95;100777.81;5065399;28;20059;-79
2020/12/14 06:00:56;;;;;;;7.00;4.75;;;;;;;1.03;91.68;100788.41;5075325;28;20055;-78
2020/12/14 06:04:02;;;;;;;32.50;24.02;;;;;;;1.01;91.71;100791.09;5062869;28;20051;-79
2020/12/14 06:07:09;;;;;;;59.05;37.13;;;;;;;1.01;91.82;100792.91;5062867;28;20055;-78
2020/12/14 06:10:15;;;;;;;26.10;16.95;;;;;;;1.08;91.98;100786.44;5062205;28;20063;-79
2020/12/14 06:13:28;;;;;;;8.30;5.68;;;;;;;1.06;91.82;100797.03;5075251;28;20478;-75
2020/12/14 06:16:35;;;;;;;7.13;4.93;;;;;;;0.97;91.69;100799.22;5071592;28;20517;-75
2020/12/14 06:19:43;;;;;;;7.88;4.75;;;;;;;0.95;91.86;100803.72;5073221;28;20040;-75
2020/12/14 06:23:01;;;;;;;11.43;5.10;;;;;;;0.94;91.91;100809.94;5074333;28;20055;-75
2020/12/14 06:26:08;;;;;;;6.10;4.20;;;;;;;1.05;91.84;100805.03;5074849;28;20202;-78
2020/12/14 06:29:30;;;;;;;4.68;3.42;;;;;;;1.05;91.42;100800.63;5062214;28;20075;-79
2020/12/14 06:32:41;;;;;;;7.30;3.35;;;;;;;1.06;91.44;100802.31;5072395;28;20059;-79
2020/12/14 06:35:49;;;;;;;6.50;3.58;;;;;;;1.10;90.99;100801.28;5073272;28;20051;-79
2020/12/14 06:38:53;;;;;;;5.90;3.58;;;;;;;1.11;90.98;100803.00;5073869;28;20051;-80
2020/12/14 06:42:07;;;;;;;7.35;3.80;;;;;;;1.20;90.79;100812.34;5073828;28;20052;-81
2020/12/14 06:45:13;;;;;;;7.50;3.50;;;;;;;1.20;90.32;100807.06;5061630;28;20391;-79
2020/12/14 06:48:33;;;;;;;5.85;3.65;;;;;;;1.32;90.89;100801.25;5073121;28;20048;-79
2020/12/14 06:51:54;;;;;;;10.15;3.60;;;;;;;1.46;91.10;100808.59;5073352;28;20047;-78
2020/12/14 06:54:59;;;;;;;7.88;3.20;;;;;;;1.52;90.45;100805.66;5073522;28;20047;-80
2020/12/14 06:58:03;;;;;;;8.57;4.03;;;;;;;1.58;89.42;100805.41;5073395;28;20056;-79
2020/12/14 07:01:35;;;;;;;8.05;4.70;;;;;;;1.63;88.56;100817.50;5073576;28;20051;-79
2020/12/14 07:04:41;;;;;;;9.90;5.47;;;;;;;1.63;88.46;100814.84;5053590;28;20108;-79
2020/12/14 07:07:55;;;;;;;10.50;6.03;;;;;;;1.71;87.89;100820.66;5040634;28;20048;-79
2020/12/14 07:11:16;;;;;;;11.88;5.68;;;;;;;1.88;87.28;100812.84;5054447;28;20071;-78
2020/12/14 07:14:30;;;;;;;13.90;5.72;;;;;;;1.97;86.44;100816.88;5053176;28;20067;-79
2020/12/14 07:17:35;;;;;;;;;;;;;;;2.40;86.37;100828.97;5041510;28;20124;-78
2020/12/14 07:21:07;;;;;;;15.82;5.20;;;;;;;3.13;83.95;100840.44;5053175;28;19917;-78
2020/12/14 07:24:12;;;;;;;9.25;5.15;;;;;;;3.50;81.69;100831.47;5053298;28;20064;-80
2020/12/14 07:27:17;;;;;;;10.77;5.13;;;;;;;4.15;78.62;100841.28;5053383;28;20048;-79
2020/12/14 07:30:21;;;;;;;11.40;4.93;;;;;;;4.54;76.55;100830.28;5040959;28;20055;-79
2020/12/14 07:33:25;;;;;;;8.90;4.00;;;;;;;5.51;72.40;100830.81;5053091;28;20048;-81
2020/12/14 07:36:32;;;;;;;8.23;3.53;;;;;;;6.99;67.04;100834.81;5041339;28;20043;-78
2020/12/14 07:39:46;;;;;;;11.75;4.57;;;;;;;8.25;61.61;100840.38;5052996;28;20060;-75
2020/12/14 07:42:51;;;;;;;7.35;3.85;;;;;;;9.48;56.95;100837.56;5052972;28;20044;-76
2020/12/14 07:45:56;;;;;;;5.47;3.22;;;;;;;10.63;53.49;100831.22;5040257;28;20051;-81
2020/12/14 07:49:09;;;;;;;6.50;3.47;;;;;;;11.83;49.63;100838.16;5072849;28;20502;-80
2020/12/14 07:52:27;;;;;;;10.63;3.53;;;;;;;12.95;45.98;100844.41;5070843;28;20047;-80
2020/12/14 07:55:33;;;;;;;7.13;3.80;;;;;;;14.22;42.80;100840.63;5057114;28;20044;-80
2020/12/14 07:58:48;;;;;;;8.73;4.88;;;;;;;14.65;41.09;100842.75;5044654;28;20052;-80
2020/12/14 08:01:53;;;;;;;10.35;5.43;;;;;;;15.53;39.58;100848.34;5070592;28;20048;-80
2020/12/14 08:05:07;;;;;;;10.95;5.18;;;;;;;16.20;37.98;100840.47;5077381;28;20051;-81
2020/12/14 08:08:11;;;;;;;;;;;;;;;17.15;35.44;100845.75;5077190;28;20052;-81
2020/12/14 08:11:20;;;;;;;11.55;5.80;;;;;;;17.48;35.08;100849.34;5076892;28;19917;-80
2020/12/14 08:14:25;;;;;;;13.70;6.50;;;;;;;18.28;33.85;100845.84;5076667;28;20052;-78
2020/12/14 08:17:30;;;;;;;10.85;5.55;;;;;;;18.29;34.00;100858.44;5064719;28;20059;-80
2020/12/14 08:20:36;;;;;;;8.48;3.95;;;;;;;19.09;32.22;100856.50;5076597;28;20051;-81
2020/12/14 08:23:40;;;;;;;7.47;3.40;;;;;;;19.27;32.20;100866.13;5076673;28;20069;-78
2020/12/14 08:26:47;;;;;;;12.40;2.92;;;;;;;19.76;31.23;100863.13;5076761;28;20043;-80
2020/12/14 08:30:07;;;;;;;6.95;3.03;;;;;;;19.80;31.30;100873.47;5076303;28;20070;-81
2020/12/14 08:33:19;;;;;;;5.55;2.95;;;;;;;19.88;30.82;100876.13;5076750;28;20044;-80
2020/12/14 08:36:24;;;;;;;8.25;3.15;;;;;;;19.92;30.97;100882.91;5076460;28;20051;-80
2020/12/14 08:39:28;;;;;;;7.72;3.90;;;;;;;20.68;30.20;100858.22;5076490;28;20059;-82
2020/12/14 08:42:33;;;;;;;5.88;3.88;;;;;;;21.01;29.45;100864.09;5076107;28;20047;-80
2020/12/14 08:46:02;;;;;;;10.75;6.28;;;;;;;22.84;26.88;100859.66;5076314;28;20060;-79
2020/12/14 08:49:05;;;;;;;13.75;6.80;;;;;;;25.35;24.37;100868.81;5076276;28;20055;-79
2020/12/14 08:52:20;;;;;;;9.90;5.20;;;;;;;26.44;22.22;100864.72;5075941;28;20163;-79
2020/12/14 08:55:34;;;;;;;12.93;5.40;;;;;;;26.26;22.74;100863.84;5076145;28;20047;-80
2020/12/14 08:58:53;;;;;;;8.45;4.05;;;;;;;26.37;22.52;100880.47;5075806;28;20407;-78
2020/12/14 09:02:07;;;;;;;13.82;9.32;;;;;;;24.59;24.24;100884.19;5075674;28;20051;-79
2020/12/14 09:05:19;;;;;;;100.15;76.50;;;;;;;25.48;23.81;100885.25;5075977;28;20055;-79
2020/12/14 09:08:24;;;;;;;10.27;5.28;;;;;;;25.55;24.12;100880.59;5076028;28;20041;-79
2020/12/14 09:11:30;;;;;;;6.20;4.35;;;;;;;24.71;25.19;100888.00;5075901;28;20075;-80
2020/12/14 09:14:35;;;;;;;8.85;3.90;;;;;;;25.06;24.41;100891.34;5040752;28;20052;-79
2020/12/14 09:17:42;;;;;;;7.30;3.90;;;;;;;23.43;26.71;100895.59;5063374;28;20051;-81
2020/12/14 09:20:47;;;;;;;7.75;3.60;;;;;;;20.19;31.36;100899.75;5075583;28;20090;-80
2020/12/14 09:24:10;;;;;;;5.70;3.63;;;;;;;17.06;36.88;100919.94;5075636;28;20052;-80
2020/12/14 09:27:15;;;;;;;6.45;4.30;;;;;;;15.74;39.88;100922.00;5063318;28;20052;-80
2020/12/14 09:30:19;;;;;;;7.57;4.10;;;;;;;15.43;41.30;100920.63;5075531;28;20047;-79
2020/12/14 09:33:23;;;;;;;6.50;4.43;;;;;;;14.72;43.03;100916.81;5055339;28;20506;-80
2020/12/14 09:36:28;;;;;;;14.18;4.80;;;;;;;14.08;44.28;100917.50;5055916;28;20060;-79
2020/12/14 09:39:33;;;;;;;9.18;4.78;;;;;;;13.71;46.30;100919.19;5055305;28;20404;-80
2020/12/14 09:42:38;;;;;;;8.70;5.35;;;;;;;13.34;46.49;100919.00;5055762;28;20056;-79
2020/12/14 09:45:42;;;;;;;12.07;5.65;;;;;;;13.00;47.77;100923.84;5042957;28;20052;-80
2020/12/14 09:48:46;;;;;;;6.72;4.90;;;;;;;12.89;48.39;100931.16;5043299;28;20048;-79
2020/12/14 09:51:51;;;;;;;12.00;5.32;;;;;;;12.38;49.72;100923.09;5054950;28;20052;-80
2020/12/14 09:54:55;;;;;;;7.47;4.95;;;;;;;12.29;49.98;100922.03;5055020;28;20048;-78
2020/12/14 09:58:00;;;;;;;9.45;5.40;;;;;;;12.28;50.29;100911.41;5054693;28;20060;-79
2020/12/14 10:01:06;;;;;;;9.30;5.07;;;;;;;12.25;50.17;100920.59;5055058;28;20045;-80
2020/12/14 10:04:10;;;;;;;6.70;4.90;;;;;;;12.47;50.32;100918.78;5054610;28;20052;-79
2020/12/14 10:07:15;;;;;;;8.90;5.63;;;;;;;12.54;51.40;100928.84;5054902;28;20060;-79
2020/12/14 10:10:19;;;;;;;8.23;5.78;;;;;;;12.29;51.59;100922.03;5061655;28;20056;-78
2020/12/14 10:13:24;;;;;;;8.35;6.07;;;;;;;12.10;53.14;100910.28;5042285;28;20064;-79
2020/12/14 10:16:28;;;;;;;10.38;6.70;;;;;;;11.79;54.17;100912.03;5054173;28;20407;-79
2020/12/14 10:19:33;;;;;;;15.13;8.02;;;;;;;11.08;59.53;100917.97;5042286;28;20332;-76
2020/12/14 10:22:39;;;;;;;14.30;7.35;;;;;;;10.45;62.17;100919.41;5074654;28;20059;-77
2020/12/14 10:25:44;;;;;;;12.40;7.10;;;;;;;10.27;64.27;100918.16;5074321;28;20394;-76
2020/12/14 10:28:48;;;;;;;12.02;7.22;;;;;;;10.21;63.83;100917.78;5074733;28;20122;-79
2020/12/14 10:31:52;;;;;;;24.80;7.97;;;;;;;10.20;64.82;100916.06;5073980;28;20043;-79
2020/12/14 10:34:56;;;;;;;16.10;7.03;;;;;;;10.20;64.40;100908.00;5074431;28;20063;-79
2020/12/14 10:38:01;;;;;;;10.82;5.95;;;;;;;10.16;62.58;100904.72;5074032;28;20048;-76
2020/12/14 10:41:06;;;;;;;7.43;5.47;;;;;;;10.12;62.83;100907.78;5074143;28;20494;-79
2020/12/14 10:44:10;;;;;;;13.57;5.90;;;;;;;10.20;62.68;100903.50;5073877;28;20050;-79
2020/12/14 10:47:14;;;;;;;7.65;5.35;;;;;;;10.21;62.96;100901.69;5074287;28;20052;-77
2020/12/14 10:50:19;;;;;;;7.90;6.28;;;;;;;9.76;63.94;100906.88;5061753;28;20059;-78
2020/12/14 10:53:24;;;;;;;9.48;7.22;;;;;;;9.75;64.42;100899.78;5061641;28;20051;-80
2020/12/14 10:56:28;;;;;;;13.07;8.02;;;;;;;9.70;64.67;100917.22;5074166;28;20052;-79
2020/12/14 10:59:33;;;;;;;11.70;8.68;;;;;;;9.58;65.34;100907.44;5073764;28;20414;-78
2020/12/14 11:02:41;;;;;;;12.57;9.38;;;;;;;9.63;65.07;100916.81;5061613;28;20585;-79
2020/12/14 11:05:46;;;;;;;14.80;10.20;;;;;;;9.55;65.58;100908.50;5073467;28;20048;-80
2020/12/14 11:08:51;;;;;;;13.93;9.90;;;;;;;9.44;66.42;100895.03;5073849;28;20047;-81
2020/12/14 11:11:55;;;;;;;14.75;10.93;;;;;;;9.32;66.88;100898.63;5038270;28;20518;-81
2020/12/14 11:15:00;;;;;;;15.90;11.02;;;;;;;9.33;67.69;100902.16;5073981;28;20051;-77
2020/12/14 11:18:24;;;;;;;12.85;10.82;;;;;;;9.50;67.27;100897.28;5061862;28;20059;-78
2020/12/14 11:21:55;;;;;;;14.38;11.82;;;;;;;9.49;67.48;100898.22;5063846;28;20403;-77
2020/12/14 11:25:04;;;;;;;14.80;11.90;;;;;;;9.65;67.23;100893.41;5071605;28;20051;-77
2020/12/14 11:28:08;;;;;;;16.83;12.98;;;;;;;9.62;67.15;100893.69;5072637;28;20278;-78
2020/12/14 11:31:13;;;;;;;15.18;12.88;;;;;;;9.59;66.63;100883.19;5073206;28;20399;-77
2020/12/14 11:34:17;;;;;;;17.25;12.82;;;;;;;9.74;67.01;100887.38;5072960;28;20059;-78
2020/12/14 11:37:22;;;;;;;14.73;12.90;;;;;;;9.69;67.22;100883.34;5061107;28;20048;-78
2020/12/14 11:40:26;;;;;;;20.88;14.07;;;;;;;9.76;66.74;100869.34;5061230;28;20051;-81
2020/12/14 11:43:31;;;;;;;17.30;14.40;;;;;;;9.72;66.69;100867.03;5072687;28;20055;-81
2020/12/14 11:46:35;;;;;;;15.30;13.40;;;;;;;9.74;67.07;100870.44;5073399;28;20048;-80
2020/12/14 11:49:40;;;;;;;18.73;15.88;;;;;;;9.69;67.03;100875.28;5071756;28;20055;-80
2020/12/14 11:52:46;;;;;;;18.13;14.48;;;;;;;9.70;67.26;100877.84;5071391;28;20430;-80
2020/12/14 11:55:51;;;;;;;18.10;16.02;;;;;;;9.64;67.13;100888.19;5070277;28;20063;-80
2020/12/14 11:58:55;;;;;;;21.35;16.30;;;;;;;9.60;67.43;100878.69;5072280;28;20051;-80
2020/12/14 12:02:00;;;;;;;21.98;17.77;;;;;;;9.56;67.52;100871.81;5072760;28;20414;-80
2020/12/14 12:05:05;;;;;;;24.17;19.88;;;;;;;9.49;68.00;100890.19;5072351;28;20399;-80
2020/12/14 12:08:09;;;;;;;23.70;19.20;;;;;;;9.53;68.53;100883.63;5072450;28;20450;-80
2020/12/14 12:11:13;;;;;;;22.45;20.05;;;;;;;9.53;68.54;100880.94;5067297;28;20083;-80
2020/12/14 12:14:18;;;;;;;29.23;24.30;;;;;;;9.43;68.39;100874.56;5072797;28;20044;-80
2020/12/14 12:17:22;;;;;;;34.30;26.08;;;;;;;9.47;68.74;100867.16;5073183;28;20052;-80
2020/12/14 12:20:27;;;;;;;33.10;26.63;;;;;;;9.50;69.07;100883.88;5060825;28;20051;-80
2020/12/14 12:23:31;;;;;;;31.08;25.80;;;;;;;9.48;68.31;100880.44;5072731;28;20048;-80
2020/12/14 12:26:35;;;;;;;32.45;28.95;;;;;;;9.49;68.14;100879.47;5072700;28;20068;-80
2020/12/14 12:29:41;;;;;;;33.60;29.17;;;;;;;9.54;68.70;100885.34;5072536;28;20047;-83
2020/12/14 12:32:45;;;;;;;34.78;29.90;;;;;;;9.42;68.65;100883.59;5060811;28;20395;-80
2020/12/14 12:35:50;;;;;;;36.70;31.80;;;;;;;9.44;69.12;100892.34;5072740;28;20545;-80
2020/12/14 12:38:54;;;;;;;34.42;30.83;;;;;;;9.44;69.54;100889.69;5075025;28;20047;-81
2020/12/14 12:41:59;;;;;;;35.38;29.88;;;;;;;9.48;69.36;100874.25;5076480;28;20047;-81
2020/12/14 12:45:03;;;;;;;34.53;30.83;;;;;;;9.51;69.38;100882.88;5076582;28;20387;-81
2020/12/14 12:48:08;;;;;;;34.97;30.27;;;;;;;9.55;68.61;100879.03;5063924;28;20403;-81
2020/12/14 12:51:12;;;;;;;35.10;31.35;;;;;;;9.56;68.88;100872.69;5076451;28;20055;-81
2020/12/14 12:54:17;;;;;;;37.35;33.38;;;;;;;9.57;69.42;100882.44;5063864;28;20052;-81
2020/12/14 12:57:21;;;;;;;35.38;31.77;;;;;;;9.57;69.23;100874.41;5076153;28;20047;-81
2020/12/14 13:00:26;;;;;;;37.70;32.03;;;;;;;9.56;69.02;100858.41;5076275;28;20047;-82
2020/12/14 13:03:30;;;;;;;37.03;32.30;;;;;;;9.57;68.92;100861.00;5075697;28;20052;-81
2020/12/14 13:06:35;;;;;;;38.28;34.28;;;;;;;9.55;69.14;100860.28;5074683;28;20052;-80
2020/12/14 13:09:40;;;;;;;38.90;33.72;;;;;;;9.49;69.63;100863.41;5073649;28;20075;-80
2020/12/14 13:12:45;;;;;;;36.63;31.55;;;;;;;9.56;69.72;100855.75;5073374;28;20052;-81
2020/12/14 13:15:49;;;;;;;37.35;33.25;;;;;;;9.54;69.28;100853.19;5073412;28;20051;-80
2020/12/14 13:18:53;;;;;;;35.53;30.25;;;;;;;9.53;69.15;100846.09;5074004;28;20056;-80
2020/12/14 13:21:58;;;;;;;33.70;30.17;;;;;;;9.55;68.56;100851.38;5075196;28;20078;-81
2020/12/14 13:25:03;;;;;;;33.17;29.50;;;;;;;9.61;68.38;100859.78;5075615;28;20051;-80
2020/12/14 13:28:07;;;;;;;35.13;31.33;;;;;;;9.66;68.36;100848.72;5062982;28;20052;-80
2020/12/14 13:31:13;;;;;;;35.20;30.90;;;;;;;9.63;68.32;100841.75;5075557;28;20052;-82
2020/12/14 13:34:18;;;;;;;32.00;28.58;;;;;;;9.59;68.26;100839.44;5075299;28;20051;-80
2020/12/14 13:37:22;;;;;;;32.40;26.83;;;;;;;9.49;67.97;100830.38;5075415;28;20157;-80
2020/12/14 13:40:27;;;;;;;34.03;28.60;;;;;;;9.52;68.32;100832.84;5075617;28;20063;-81
2020/12/14 13:43:31;;;;;;;31.67;28.20;;;;;;;9.51;68.46;100831.97;5075336;28;20055;-80
2020/12/14 13:46:36;;;;;;;32.75;27.27;;;;;;;9.39;67.99;100832.91;5075392;28;20051;-80
2020/12/14 13:49:40;;;;;;;31.65;28.25;;;;;;;9.47;68.04;100841.22;5073854;28;20052;-79
2020/12/14 13:52:44;;;;;;;32.58;27.50;;;;;;;9.40;68.45;100834.63;5059056;28;20059;-78
2020/12/14 13:55:49;;;;;;;34.20;28.98;;;;;;;9.38;68.91;100841.06;5068130;28;20044;-80
2020/12/14 13:58:53;;;;;;;31.02;27.80;;;;;;;9.40;68.79;100840.00;5049298;28;20044;-80
2020/12/14 14:01:58;;;;;;;30.60;26.95;;;;;;;9.42;69.29;100854.13;5071353;28;20060;-79
2020/12/14 14:05:03;;;;;;;28.58;25.50;;;;;;;9.34;68.97;100843.09;5054996;28;20040;-80
2020/12/14 14:08:07;;;;;;;28.08;24.92;;;;;;;9.39;68.53;100846.31;5042340;28;20044;-80
2020/12/14 14:11:12;;;;;;;27.63;24.63;;;;;;;9.37;68.31;100845.56;5054716;28;20060;-78
2020/12/14 14:14:17;;;;;;;31.60;25.98;;;;;;;9.17;68.72;100843.50;5046052;28;20043;-80
2020/12/14 14:17:21;;;;;;;27.95;24.67;;;;;;;9.20;69.00;100854.00;5062251;28;20407;-80
2020/12/14 14:20:26;;;;;;;32.67;26.27;;;;;;;9.18;69.61;100847.91;5068372;28;20055;-80
2020/12/14 14:23:30;;;;;;;28.35;24.50;;;;;;;9.18;69.52;100840.72;5074447;28;20549;-81
2020/12/14 14:26:34;;;;;;;30.80;27.27;;;;;;;9.12;69.35;100845.69;5042489;28;20055;-81
2020/12/14 14:29:39;;;;;;;37.15;27.73;;;;;;;9.12;69.91;100856.38;5049503;28;20395;-81
2020/12/14 14:32:43;;;;;;;35.13;27.80;;;;;;;9.08;70.12;100847.75;5074007;28;20051;-79